»·PEaware :: N7GL KSAN-KRAL

N7GL :: KSAN-KRAL

FLIGHT INFORMATION

Flight Status: Arrived
Operator: Privately registered:
United States
More flights under this callsign
Pilot: Georg L. (13308)
Aircraft: BEECH AIRCRAFT SUPER KING AIR 350
(B350)
More flights by this aircraft type
Origin: KSAN San Diego Intl-Lindbergh
United States
Destination: KRAL Riverside Mun
United States
More flights between these airports :: More routes between these airports
Route: V186 PDZ
File this flight plan on PilotEdge
Remarks: TEC ROUTE SANP21
Altitude:
(Current/Filed)
10,000ft
Speed:
(Current/Filed)
284kts
Departed: 18-Oct-20 07:24 AM
Arrived: 18-Oct-20 07:56 AM
Distance/Time
Traveled:
74nm/0:32
Distance/Time
To Go:
Arrived

Flight Plot

Page will automatically refresh every two minutes.


Map Options




Map Legend


Flown Route
Filed Route
Departure Airport
Arrival Airport
Navaid (VOR, NDB)
Fix

Horizontal Profiles

Position Reports

Time Latitude Longitude Heading Altitude Ground
Speed
18-Oct-20 06:57 32.733711 -117.178598 211 22ft 0kts
18-Oct-20 06:58 32.733711 -117.178598 211 22ft 0kts
18-Oct-20 06:59 32.733711 -117.178598 211 22ft 0kts
18-Oct-20 07:00 32.733711 -117.178598 211 22ft 0kts
18-Oct-20 07:01 32.733711 -117.178598 211 22ft 0kts
18-Oct-20 07:02 32.733711 -117.178598 211 22ft 0kts
18-Oct-20 07:03 32.733711 -117.178598 211 22ft 0kts
18-Oct-20 07:04 32.733711 -117.178598 211 22ft 0kts
18-Oct-20 07:05 32.733711 -117.178598 211 22ft 0kts
18-Oct-20 07:06 32.733711 -117.178598 211 22ft 0kts
18-Oct-20 07:07 32.733711 -117.178598 211 22ft 0kts
18-Oct-20 07:08 32.733711 -117.178598 209 22ft 0kts
18-Oct-20 07:09 32.733711 -117.178598 209 22ft 0kts
18-Oct-20 07:10 32.733711 -117.178598 209 22ft 0kts
18-Oct-20 07:11 32.733711 -117.178598 209 22ft 0kts
18-Oct-20 07:12 32.733711 -117.178598 209 22ft 0kts
18-Oct-20 07:13 32.733711 -117.178598 209 22ft 0kts
18-Oct-20 07:14 32.733711 -117.178598 209 22ft 0kts
18-Oct-20 07:15 32.733711 -117.178598 209 22ft 0kts
18-Oct-20 07:16 32.733711 -117.178598 209 22ft 0kts
18-Oct-20 07:17 32.733665 -117.179074 283 22ft 3kts
18-Oct-20 07:18 32.732862 -117.179730 197 22ft 0kts
18-Oct-20 07:19 32.732024 -117.178583 106 22ft 19kts
18-Oct-20 07:20 32.730974 -117.175480 151 22ft 0kts
18-Oct-20 07:21 32.730974 -117.175480 151 22ft 0kts
18-Oct-20 07:22 32.730789 -117.175365 152 22ft 7kts
18-Oct-20 07:23 32.734763 -117.194381 289 710ft 117kts
18-Oct-20 07:24 32.744977 -117.241663 286 2709ft 166kts
18-Oct-20 07:25 32.755986 -117.295693 286 5056ft 171kts
18-Oct-20 07:26 32.729393 -117.327685 171 7165ft 198kts
18-Oct-20 07:27 32.695266 -117.277657 101 8036ft 252kts
18-Oct-20 07:28 32.678591 -117.189125 100 8360ft 275kts
18-Oct-20 07:29 32.663821 -117.110032 101 10022ft 266kts
18-Oct-20 07:31 32.673826 -117.024716 48 10023ft 281kts
18-Oct-20 07:32 32.742809 -117.005720 347 10001ft 270kts
18-Oct-20 07:33 32.817186 -117.021944 347 9999ft 273kts
18-Oct-20 07:34 32.892076 -117.037708 347 9998ft 274kts
18-Oct-20 07:35 32.967258 -117.053481 347 9998ft 275kts
18-Oct-20 07:36 33.042521 -117.069288 347 9995ft 275kts
18-Oct-20 07:37 33.117865 -117.085158 347 9993ft 275kts
18-Oct-20 07:38 33.193398 -117.101098 347 9992ft 275kts
18-Oct-20 07:39 33.268733 -117.116937 347 9990ft 276kts
18-Oct-20 07:40 33.344334 -117.132792 347 9919ft 279kts
18-Oct-20 07:41 33.419249 -117.148440 347 8552ft 261kts
18-Oct-20 07:42 33.489264 -117.163290 347 7239ft 252kts
18-Oct-20 07:43 33.557789 -117.178372 347 5992ft 247kts
18-Oct-20 07:44 33.620526 -117.192242 347 5995ft 222kts
18-Oct-20 07:45 33.680425 -117.205340 347 5991ft 213kts
18-Oct-20 07:45 33.730278 -117.211188 2 5069ft 222kts
18-Oct-20 07:47 33.801096 -117.209885 350 3751ft 199kts
18-Oct-20 07:47 33.838698 -117.232592 325 3828ft 188kts
18-Oct-20 07:49 33.891703 -117.282295 308 3891ft 220kts
18-Oct-20 07:50 33.926628 -117.347322 304 3050ft 231kts
18-Oct-20 07:50 33.946969 -117.402854 293 2155ft 199kts
18-Oct-20 07:52 33.938541 -117.453161 183 2323ft 149kts
18-Oct-20 07:52 33.917907 -117.425856 106 2128ft 139kts
18-Oct-20 07:54 33.929536 -117.389964 358 2280ft 119kts
18-Oct-20 07:54 33.946684 -117.414440 283 1408ft 131kts
18-Oct-20 07:55 33.952681 -117.445875 278 820ft 11kts
18-Oct-20 07:56 33.952027 -117.446233 133 820ft 0kts
18-Oct-20 07:57 33.951590 -117.444103 105 820ft 22kts
18-Oct-20 07:58 33.950092 -117.443084 293 820ft 2kts
18-Oct-20 07:59 33.950100 -117.443106 295 820ft 0kts
18-Oct-20 08:00 33.950100 -117.443106 295 820ft 0kts
18-Oct-20 08:01 33.950100 -117.443106 295 820ft 0kts
18-Oct-20 08:02 33.950100 -117.443106 295 820ft 0kts
18-Oct-20 08:03 33.950100 -117.443106 295 820ft 0kts
18-Oct-20 08:04 33.950100 -117.443106 295 820ft 0kts
18-Oct-20 08:05 33.950100 -117.443106 295 820ft 0kts
18-Oct-20 08:06 33.950100 -117.443106 295 820ft 0kts
18-Oct-20 08:07 33.950100 -117.443106 295 820ft 0kts
18-Oct-20 08:08 33.950100 -117.443106 295 820ft 0kts
18-Oct-20 08:09 33.950100 -117.443106 295 820ft 0kts

Navigation Log

Ident Type
Flight plan parsing failed, navigation log unavailable